sensor_id;sensor_type;location;lat;lon;timestamp;pressure;altitude;pressure_sealevel;temperature;humidity
19831;BME280;10076;52.008;4.708;2023-11-22T00:01:49;102855.31;;;9.28;100.00
19831;BME280;10076;52.008;4.708;2023-11-22T00:04:14;102848.38;;;9.26;100.00
19831;BME280;10076;52.008;4.708;2023-11-22T00:06:40;102853.72;;;9.23;100.00
19831;BME280;10076;52.008;4.708;2023-11-22T00:09:05;102853.56;;;9.27;100.00
19831;BME280;10076;52.008;4.708;2023-11-22T00:11:31;102860.72;;;9.24;100.00
19831;BME280;10076;52.008;4.708;2023-11-22T00:13:57;102848.38;;;9.26;100.00
19831;BME280;10076;52.008;4.708;2023-11-22T00:16:22;102850.13;;;9.25;100.00
19831;BME280;10076;52.008;4.708;2023-11-22T00:18:48;102853.72;;;9.23;100.00
19831;BME280;10076;52.008;4.708;2023-11-22T00:21:13;102861.81;;;9.18;100.00
19831;BME280;10076;52.008;4.708;2023-11-22T00:23:39;102867.81;;;9.22;100.00
19831;BME280;10076;52.008;4.708;2023-11-22T00:26:04;102862.66;;;9.19;100.00
19831;BME280;10076;52.008;4.708;2023-11-22T00:28:31;102862.59;;;9.20;100.00
19831;BME280;10076;52.008;4.708;2023-11-22T00:30:56;102863.81;;;9.10;100.00
19831;BME280;10076;52.008;4.708;2023-11-22T00:33:21;102863.94;;;9.06;100.00
19831;BME280;10076;52.008;4.708;2023-11-22T00:35:47;102864.00;;;9.04;100.00
19831;BME280;10076;52.008;4.708;2023-11-22T00:38:12;102872.94;;;9.00;100.00
19831;BME280;10076;52.008;4.708;2023-11-22T00:40:37;102873.78;;;9.01;100.00
19831;BME280;10076;52.008;4.708;2023-11-22T00:43:03;102881.69;;;9.01;100.00
19831;BME280;10076;52.008;4.708;2023-11-22T00:45:28;102880.00;;;8.98;100.00
19831;BME280;10076;52.008;4.708;2023-11-22T00:47:54;102881.75;;;8.99;100.00
19831;BME280;10076;52.008;4.708;2023-11-22T00:50:20;102870.31;;;8.99;100.00
19831;BME280;10076;52.008;4.708;2023-11-22T00:52:48;102873.91;;;8.98;100.00
19831;BME280;10076;52.008;4.708;2023-11-22T00:55:14;102870.38;;;8.97;100.00
19831;BME280;10076;52.008;4.708;2023-11-22T00:57:40;102873.13;;;8.94;100.00
19831;BME280;10076;52.008;4.708;2023-11-22T01:00:06;102872.16;;;8.97;100.00
19831;BME280;10076;52.008;4.708;2023-11-22T01:02:34;102882.97;;;8.90;100.00
19831;BME280;10076;52.008;4.708;2023-11-22T01:05:01;102894.47;;;8.86;100.00
19831;BME280;10076;52.008;4.708;2023-11-22T01:07:27;102897.09;;;8.86;100.00
19831;BME280;10076;52.008;4.708;2023-11-22T01:09:52;102900.28;;;8.96;100.00
19831;BME280;10076;52.008;4.708;2023-11-22T01:12:18;102899.75;;;8.86;100.00
19831;BME280;10076;52.008;4.708;2023-11-22T01:14:44;102906.75;;;8.87;100.00
19831;BME280;10076;52.008;4.708;2023-11-22T01:17:09;102903.28;;;8.85;100.00
19831;BME280;10076;52.008;4.708;2023-11-22T01:19:35;102912.16;;;8.82;100.00
19831;BME280;10076;52.008;4.708;2023-11-22T01:22:00;102917.38;;;8.84;100.00
19831;BME280;10076;52.008;4.708;2023-11-22T01:24:25;102915.69;;;8.81;100.00
19831;BME280;10076;52.008;4.708;2023-11-22T01:26:53;102924.66;;;8.76;100.00
19831;BME280;10076;52.008;4.708;2023-11-22T01:29:18;102924.59;;;8.77;100.00
19831;BME280;10076;52.008;4.708;2023-11-22T01:31:43;102919.47;;;8.73;100.00
19831;BME280;10076;52.008;4.708;2023-11-22T01:34:09;102918.56;;;8.74;100.00
19831;BME280;10076;52.008;4.708;2023-11-22T01:36:34;102919.38;;;8.76;100.00
19831;BME280;10076;52.008;4.708;2023-11-22T01:38:59;102908.84;;;8.76;100.00
19831;BME280;10076;52.008;4.708;2023-11-22T01:41:25;102907.94;;;8.77;100.00
19831;BME280;10076;52.008;4.708;2023-11-22T01:43:50;102910.66;;;8.74;100.00
19831;BME280;10076;52.008;4.708;2023-11-22T01:46:23;102909.75;;;8.75;100.00
19831;BME280;10076;52.008;4.708;2023-11-22T01:48:49;102914.94;;;8.78;100.00
19831;BME280;10076;52.008;4.708;2023-11-22T01:51:15;102922.91;;;8.75;100.00
19831;BME280;10076;52.008;4.708;2023-11-22T01:53:41;102922.91;;;8.75;100.00
19831;BME280;10076;52.008;4.708;2023-11-22T01:56:07;102925.41;;;8.79;100.00
19831;BME280;10076;52.008;4.708;2023-11-22T01:58:32;102934.28;;;8.77;100.00
19831;BME280;10076;52.008;4.708;2023-11-22T02:00:58;102929.72;;;8.82;100.00
19831;BME280;10076;52.008;4.708;2023-11-22T02:03:24;102924.34;;;8.85;100.00
19831;BME280;10076;52.008;4.708;2023-11-22T02:05:50;102930.69;;;8.79;100.00
19831;BME280;10076;52.008;4.708;2023-11-22T02:08:15;102935.19;;;8.76;100.00
19831;BME280;10076;52.008;4.708;2023-11-22T02:10:41;102929.03;;;8.75;100.00
19831;BME280;10076;52.008;4.708;2023-11-22T02:13:07;102931.72;;;8.74;100.00
19831;BME280;10076;52.008;4.708;2023-11-22T02:15:37;102930.00;;;8.73;100.00
19831;BME280;10076;52.008;4.708;2023-11-22T02:18:03;102923.19;;;8.66;100.00
19831;BME280;10076;52.008;4.708;2023-11-22T02:20:31;102936.38;;;8.66;100.00
19831;BME280;10076;52.008;4.708;2023-11-22T02:22:56;102933.75;;;8.66;100.00
19831;BME280;10076;52.008;4.708;2023-11-22T02:25:22;102925.09;;;8.61;100.00
19831;BME280;10076;52.008;4.708;2023-11-22T02:27:47;102927.53;;;8.68;100.00
19831;BME280;10076;52.008;4.708;2023-11-22T02:30:13;102924.16;;;8.63;100.00
19831;BME280;10076;52.008;4.708;2023-11-22T02:32:38;102925.09;;;8.61;100.00
19831;BME280;10076;52.008;4.708;2023-11-22T02:35:04;102917.41;;;8.55;100.00
19831;BME280;10076;52.008;4.708;2023-11-22T02:37:33;102920.03;;;8.55;100.00
19831;BME280;10076;52.008;4.708;2023-11-22T02:40:17;102913.94;;;8.53;100.00
19831;BME280;10076;52.008;4.708;2023-11-22T02:42:44;102916.44;;;8.57;100.00
19831;BME280;10076;52.008;4.708;2023-11-22T02:45:09;102921.88;;;8.51;100.00
19831;BME280;10076;52.008;4.708;2023-11-22T02:47:35;102918.47;;;8.48;100.00
19831;BME280;10076;52.008;4.708;2023-11-22T02:50:01;102930.56;;;8.53;100.00
19831;BME280;10076;52.008;4.708;2023-11-22T02:52:27;102927.94;;;8.53;100.00
19831;BME280;10076;52.008;4.708;2023-11-22T02:54:52;102916.56;;;8.53;100.00
19831;BME280;10076;52.008;4.708;2023-11-22T02:57:18;102924.53;;;8.51;100.00
19831;BME280;10076;52.008;4.708;2023-11-22T02:59:44;102922.91;;;8.46;100.00
19831;BME280;10076;52.008;4.708;2023-11-22T03:02:10;102923.91;;;8.42;100.00
19831;BME280;10076;52.008;4.708;2023-11-22T03:04:35;102921.22;;;8.43;100.00
19831;BME280;10076;52.008;4.708;2023-11-22T03:07:01;102912.59;;;8.38;100.00
19831;BME280;10076;52.008;4.708;2023-11-22T03:09:26;102921.28;;;8.42;100.00
19831;BME280;10076;52.008;4.708;2023-11-22T03:11:52;102922.25;;;8.38;100.00
19831;BME280;10076;52.008;4.708;2023-11-22T03:14:17;102926.66;;;8.37;100.00
19831;BME280;10076;52.008;4.708;2023-11-22T03:16:43;102928.41;;;8.38;100.00
19831;BME280;10076;52.008;4.708;2023-11-22T03:19:08;102926.66;;;8.37;100.00
19831;BME280;10076;52.008;4.708;2023-11-22T03:21:35;102936.34;;;8.37;100.00
19831;BME280;10076;52.008;4.708;2023-11-22T03:24:01;102936.34;;;8.37;100.00
19831;BME280;10076;52.008;4.708;2023-11-22T03:26:31;102953.03;;;8.36;100.00
19831;BME280;10076;52.008;4.708;2023-11-22T03:28:57;102959.09;;;8.38;100.00
19831;BME280;10076;52.008;4.708;2023-11-22T03:31:22;102957.25;;;8.43;100.00
19831;BME280;10076;52.008;4.708;2023-11-22T03:33:47;102968.72;;;8.40;100.00
19831;BME280;10076;52.008;4.708;2023-11-22T03:36:13;102964.31;;;8.41;100.00
19831;BME280;10076;52.008;4.708;2023-11-22T03:38:41;102974.66;;;8.47;100.00
19831;BME280;10076;52.008;4.708;2023-11-22T03:41:06;102972.03;;;8.47;100.00
19831;BME280;10076;52.008;4.708;2023-11-22T03:43:32;102990.19;;;8.56;100.00
19831;BME280;10076;52.008;4.708;2023-11-22T03:45:57;102996.22;;;8.59;100.00
19831;BME280;10076;52.008;4.708;2023-11-22T03:48:22;103007.53;;;8.63;100.00
19831;BME280;10076;52.008;4.708;2023-11-22T03:50:49;103004.00;;;8.64;100.00
19831;BME280;10076;52.008;4.708;2023-11-22T03:53:14;103009.19;;;8.67;100.00
19831;BME280;10076;52.008;4.708;2023-11-22T03:55:40;103013.53;;;8.69;100.00
19831;BME280;10076;52.008;4.708;2023-11-22T03:58:05;103015.09;;;8.75;100.00
19831;BME280;10076;52.008;4.708;2023-11-22T04:00:31;103015.22;;;8.72;100.00
19831;BME280;10076;52.008;4.708;2023-11-22T04:02:57;103020.50;;;8.70;100.00
19831;BME280;10076;52.008;4.708;2023-11-22T04:05:25;103021.44;;;8.68;100.00
19831;BME280;10076;52.008;4.708;2023-11-22T04:07:50;103018.00;;;8.66;100.00
19831;BME280;10076;52.008;4.708;2023-11-22T04:10:16;103017.91;;;8.69;100.00
19831;BME280;10076;52.008;4.708;2023-11-22T04:12:42;103022.34;;;8.67;100.00
19831;BME280;10076;52.008;4.708;2023-11-22T04:15:07;103023.28;;;8.66;100.00
19831;BME280;10076;52.008;4.708;2023-11-22T04:17:36;103035.44;;;8.70;100.00
19831;BME280;10076;52.008;4.708;2023-11-22T04:20:08;103025.75;;;8.72;100.00
19831;BME280;10076;52.008;4.708;2023-11-22T04:22:39;103029.28;;;8.71;100.00
19831;BME280;10076;52.008;4.708;2023-11-22T04:25:05;103031.91;;;8.71;100.00
19831;BME280;10076;52.008;4.708;2023-11-22T04:27:31;103030.19;;;8.70;100.00
19831;BME280;10076;52.008;4.708;2023-11-22T04:29:56;103032.81;;;8.70;100.00
19831;BME280;10076;52.008;4.708;2023-11-22T04:32:21;103045.03;;;8.72;100.00
19831;BME280;10076;52.008;4.708;2023-11-22T04:34:47;103043.25;;;8.73;100.00
19831;BME280;10076;52.008;4.708;2023-11-22T04:37:13;103053.88;;;8.70;100.00
19831;BME280;10076;52.008;4.708;2023-11-22T04:39:38;103053.38;;;8.56;100.00
19831;BME280;10076;52.008;4.708;2023-11-22T04:42:04;103050.75;;;8.56;100.00
19831;BME280;10076;52.008;4.708;2023-11-22T04:44:30;103045.31;;;8.62;100.00
19831;BME280;10076;52.008;4.708;2023-11-22T04:46:57;103043.63;;;8.59;100.00
19831;BME280;10076;52.008;4.708;2023-11-22T04:49:24;103038.31;;;8.62;100.00
19831;BME280;10076;52.008;4.708;2023-11-22T04:51:50;103042.91;;;8.54;100.00
19831;BME280;10076;52.008;4.708;2023-11-22T04:54:15;103038.38;;;8.59;100.00
19831;BME280;10076;52.008;4.708;2023-11-22T04:56:40;103032.25;;;8.59;100.00
19831;BME280;10076;52.008;4.708;2023-11-22T04:59:06;103023.28;;;8.66;100.00
19831;BME280;10076;52.008;4.708;2023-11-22T05:01:32;103027.63;;;8.67;100.00
19831;BME280;10076;52.008;4.708;2023-11-22T05:03:57;103025.91;;;8.66;100.00
19831;BME280;10076;52.008;4.708;2023-11-22T05:06:24;103029.34;;;8.68;100.00
19831;BME280;10076;52.008;4.708;2023-11-22T05:08:49;103028.28;;;8.75;100.00
19831;BME280;10076;52.008;4.708;2023-11-22T05:11:14;103035.34;;;8.73;100.00
19831;BME280;10076;52.008;4.708;2023-11-22T05:13:41;103040.66;;;8.71;100.00
19831;BME280;10076;52.008;4.708;2023-11-22T05:16:08;103036.22;;;8.73;100.00
19831;BME280;10076;52.008;4.708;2023-11-22T05:18:34;103036.28;;;8.72;100.00
19831;BME280;10076;52.008;4.708;2023-11-22T05:21:01;103033.72;;;8.69;100.00
19831;BME280;10076;52.008;4.708;2023-11-22T05:23:26;103032.16;;;8.62;100.00
19831;BME280;10076;52.008;4.708;2023-11-22T05:25:51;103030.28;;;8.65;100.00
19831;BME280;10076;52.008;4.708;2023-11-22T05:28:17;103026.03;;;8.61;100.00
19831;BME280;10076;52.008;4.708;2023-11-22T05:30:42;103018.34;;;8.54;100.00
19831;BME280;10076;52.008;4.708;2023-11-22T05:33:07;103013.72;;;8.62;100.00
19831;BME280;10076;52.008;4.708;2023-11-22T05:35:33;103011.09;;;8.62;100.00
19831;BME280;10076;52.008;4.708;2023-11-22T05:37:58;103007.81;;;8.54;100.00
19831;BME280;10076;52.008;4.708;2023-11-22T05:40:23;103012.09;;;8.58;100.00
19831;BME280;10076;52.008;4.708;2023-11-22T05:42:49;103019.97;;;8.58;100.00
19831;BME280;10076;52.008;4.708;2023-11-22T05:45:14;103019.38;;;8.48;100.00
19831;BME280;10076;52.008;4.708;2023-11-22T05:47:39;103018.81;;;8.37;100.00
19831;BME280;10076;52.008;4.708;2023-11-22T05:50:07;103024.75;;;8.44;100.00
19831;BME280;10076;52.008;4.708;2023-11-22T05:52:32;103024.91;;;8.39;100.00
19831;BME280;10076;52.008;4.708;2023-11-22T05:54:58;103009.06;;;8.41;100.00
19831;BME280;10076;52.008;4.708;2023-11-22T05:57:23;103018.75;;;8.39;100.00
19831;BME280;10076;52.008;4.708;2023-11-22T05:59:48;103021.72;;;8.27;100.00
19831;BME280;10076;52.008;4.708;2023-11-22T06:02:14;103025.91;;;8.34;100.00
19831;BME280;10076;52.008;4.708;2023-11-22T06:04:39;103034.91;;;8.25;100.00
19831;BME280;10076;52.008;4.708;2023-11-22T06:07:04;103049.19;;;8.17;100.00
19831;BME280;10076;52.008;4.708;2023-11-22T06:09:30;103053.13;;;8.00;100.00
19831;BME280;10076;52.008;4.708;2023-11-22T06:11:55;103058.09;;;8.10;100.00
19831;BME280;10076;52.008;4.708;2023-11-22T06:14:21;103073.81;;;8.13;100.00
19831;BME280;10076;52.008;4.708;2023-11-22T06:16:47;103068.84;;;8.01;100.00
19831;BME280;10076;52.008;4.708;2023-11-22T06:19:12;103075.84;;;8.02;100.00
19831;BME280;10076;52.008;4.708;2023-11-22T06:21:37;103076.56;;;8.09;100.00
19831;BME280;10076;52.008;4.708;2023-11-22T06:24:04;103088.72;;;8.13;100.00
19831;BME280;10076;52.008;4.708;2023-11-22T06:26:33;103083.44;;;8.16;100.00
19831;BME280;10076;52.008;4.708;2023-11-22T06:28:59;103075.75;;;8.05;100.00
19831;BME280;10076;52.008;4.708;2023-11-22T06:31:24;103075.63;;;8.11;100.00
19831;BME280;10076;52.008;4.708;2023-11-22T06:33:49;103054.56;;;8.11;100.00
19831;BME280;10076;52.008;4.708;2023-11-22T06:36:14;103057.16;;;8.13;100.00
19831;BME280;10076;52.008;4.708;2023-11-22T06:38:40;103051.94;;;8.11;100.00
19831;BME280;10076;52.008;4.708;2023-11-22T06:41:05;103051.25;;;8.03;100.00
19831;BME280;10076;52.008;4.708;2023-11-22T06:43:31;103052.53;;;7.87;100.00
19831;BME280;10076;52.008;4.708;2023-11-22T06:45:56;103051.63;;;7.88;100.00
19831;BME280;10076;52.008;4.708;2023-11-22T06:48:22;103033.44;;;7.81;100.00
19831;BME280;10076;52.008;4.708;2023-11-22T06:50:47;103031.03;;;7.70;100.00
19831;BME280;10076;52.008;4.708;2023-11-22T06:53:13;103027.22;;;7.83;100.00
19831;BME280;10076;52.008;4.708;2023-11-22T06:55:38;103036.09;;;7.79;100.00
19831;BME280;10076;52.008;4.708;2023-11-22T06:58:04;103029.31;;;7.69;100.00
19831;BME280;10076;52.008;4.708;2023-11-22T07:00:31;103033.63;;;7.73;100.00
19831;BME280;10076;52.008;4.708;2023-11-22T07:02:57;103036.94;;;7.80;100.00
19831;BME280;10076;52.008;4.708;2023-11-22T07:05:23;103055.25;;;7.84;100.00
19831;BME280;10076;52.008;4.708;2023-11-22T07:07:49;103069.50;;;7.76;100.00
19831;BME280;10076;52.008;4.708;2023-11-22T07:10:14;103081.00;;;7.70;100.00
19831;BME280;10076;52.008;4.708;2023-11-22T07:12:40;103081.38;;;7.92;100.00
19831;BME280;10076;52.008;4.708;2023-11-22T07:15:08;103080.34;;;7.97;100.00
19831;BME280;10076;52.008;4.708;2023-11-22T07:17:35;103080.66;;;7.84;100.00
19831;BME280;10076;52.008;4.708;2023-11-22T07:20:00;103079.81;;;8.20;100.00
19831;BME280;10076;52.008;4.708;2023-11-22T07:22:26;103091.13;;;7.87;100.00
19831;BME280;10076;52.008;4.708;2023-11-22T07:24:52;103081.97;;;8.03;100.00
19831;BME280;10076;52.008;4.708;2023-11-22T07:27:19;103079.72;;;7.86;100.00
19831;BME280;10076;52.008;4.708;2023-11-22T07:29:45;103080.97;;;7.72;100.00
19831;BME280;10076;52.008;4.708;2023-11-22T07:32:11;103078.03;;;7.84;100.00
19831;BME280;10076;52.008;4.708;2023-11-22T07:34:38;103068.91;;;7.63;100.00
19831;BME280;10076;52.008;4.708;2023-11-22T07:37:04;103075.56;;;7.79;100.00
19831;BME280;10076;52.008;4.708;2023-11-22T07:39:31;103074.09;;;7.66;100.00
19831;BME280;10076;52.008;4.708;2023-11-22T07:41:57;103084.00;;;7.92;100.00
19831;BME280;10076;52.008;4.708;2023-11-22T07:44:22;103093.44;;;7.64;100.00
19831;BME280;10076;52.008;4.708;2023-11-22T07:46:49;103105.56;;;7.71;100.00
19831;BME280;10076;52.008;4.708;2023-11-22T07:49:14;103106.75;;;7.56;100.00
19831;BME280;10076;52.008;4.708;2023-11-22T07:51:40;103115.06;;;7.76;100.00
19831;BME280;10076;52.008;4.708;2023-11-22T07:54:06;103119.66;;;7.67;100.00
19831;BME280;10076;52.008;4.708;2023-11-22T07:56:32;103113.28;;;7.39;100.00
19831;BME280;10076;52.008;4.708;2023-11-22T07:58:58;103127.81;;;7.16;100.00
19831;BME280;10076;52.008;4.708;2023-11-22T08:01:23;103128.97;;;7.00;100.00
19831;BME280;10076;52.008;4.708;2023-11-22T08:03:53;103141.19;;;7.02;100.00
19831;BME280;10076;52.008;4.708;2023-11-22T08:06:18;103132.34;;;7.08;100.00
19831;BME280;10076;52.008;4.708;2023-11-22T08:08:44;103133.41;;;6.96;100.00
19831;BME280;10076;52.008;4.708;2023-11-22T08:11:11;103141.13;;;7.05;100.00
19831;BME280;10076;52.008;4.708;2023-11-22T08:13:40;103142.59;;;7.20;100.00
19831;BME280;10076;52.008;4.708;2023-11-22T08:16:06;103139.88;;;7.23;100.00
19831;BME280;10076;52.008;4.708;2023-11-22T08:18:31;103127.31;;;7.38;100.00
19831;BME280;10076;52.008;4.708;2023-11-22T08:20:56;103137.13;;;7.29;100.00
19831;BME280;10076;52.008;4.708;2023-11-22T08:23:22;103142.19;;;7.39;100.00
19831;BME280;10076;52.008;4.708;2023-11-22T08:25:47;103147.69;;;7.27;100.00
19831;BME280;10076;52.008;4.708;2023-11-22T08:28:12;103143.97;;;7.39;100.00
19831;BME280;10076;52.008;4.708;2023-11-22T08:30:38;103157.53;;;7.58;100.00
19831;BME280;10076;52.008;4.708;2023-11-22T08:33:06;103148.97;;;7.51;100.00
19831;BME280;10076;52.008;4.708;2023-11-22T08:35:31;103155.25;;;7.44;100.00
19831;BME280;10076;52.008;4.708;2023-11-22T08:37:56;103155.31;;;7.39;100.00
19831;BME280;10076;52.008;4.708;2023-11-22T08:40:23;103150.16;;;7.74;100.00
19831;BME280;10076;52.008;4.708;2023-11-22T08:42:49;103136.19;;;8.10;100.00
19831;BME280;10076;52.008;4.708;2023-11-22T08:45:15;103131.00;;;8.43;100.00
19831;BME280;10076;52.008;4.708;2023-11-22T08:47:40;103132.16;;;8.31;100.00
19831;BME280;10076;52.008;4.708;2023-11-22T08:50:09;103138.53;;;8.56;100.00
19831;BME280;10076;52.008;4.708;2023-11-22T08:52:38;103128.56;;;8.34;100.00
19831;BME280;10076;52.008;4.708;2023-11-22T08:55:05;103129.91;;;8.50;100.00
19831;BME280;10076;52.008;4.708;2023-11-22T08:57:35;103122.16;;;8.77;100.00
19831;BME280;10076;52.008;4.708;2023-11-22T09:00:01;103125.34;;;8.90;100.00
19831;BME280;10076;52.008;4.708;2023-11-22T09:02:32;103123.78;;;8.83;100.00
19831;BME280;10076;52.008;4.708;2023-11-22T09:04:58;103123.78;;;8.83;100.00
19831;BME280;10076;52.008;4.708;2023-11-22T09:07:23;103115.19;;;9.06;100.00
19831;BME280;10076;52.008;4.708;2023-11-22T09:09:49;103114.53;;;8.98;100.00
19831;BME280;10076;52.008;4.708;2023-11-22T09:12:17;103122.38;;;9.00;100.00
19831;BME280;10076;52.008;4.708;2023-11-22T09:14:45;103127.66;;;9.00;100.00
19831;BME280;10076;52.008;4.708;2023-11-22T09:17:10;103135.16;;;9.15;100.00
19831;BME280;10076;52.008;4.708;2023-11-22T09:19:35;103136.41;;;9.02;100.00
19831;BME280;10076;52.008;4.708;2023-11-22T09:22:02;103146.81;;;9.06;100.00
19831;BME280;10076;52.008;4.708;2023-11-22T09:24:27;103148.69;;;9.01;100.00
19831;BME280;10076;52.008;4.708;2023-11-22T09:26:52;103153.84;;;8.74;100.00
19831;BME280;10076;52.008;4.708;2023-11-22T09:29:18;103146.75;;;8.76;100.00
19831;BME280;10076;52.008;4.708;2023-11-22T09:31:44;103151.91;;;8.81;100.00
19831;BME280;10076;52.008;4.708;2023-11-22T09:34:12;103142.78;;;8.93;100.00
19831;BME280;10076;52.008;4.708;2023-11-22T09:36:38;103136.91;;;9.14;100.00
19831;BME280;10076;52.008;4.708;2023-11-22T09:39:04;103146.44;;;9.20;100.00
19831;BME280;10076;52.008;4.708;2023-11-22T09:41:34;103145.50;;;9.51;100.00
19831;BME280;10076;52.008;4.708;2023-11-22T09:43:59;103132.13;;;9.28;100.00
19831;BME280;10076;52.008;4.708;2023-11-22T09:46:25;103132.38;;;9.48;100.00
19831;BME280;10076;52.008;4.708;2023-11-22T09:48:52;103132.19;;;9.25;100.00
19831;BME280;10076;52.008;4.708;2023-11-22T09:51:23;103133.97;;;9.25;100.00
19831;BME280;10076;52.008;4.708;2023-11-22T09:53:56;103127.72;;;8.98;100.00
19831;BME280;10076;52.008;4.708;2023-11-22T09:56:23;103129.91;;;9.42;100.00
19831;BME280;10076;52.008;4.708;2023-11-22T09:58:52;103124.06;;;9.62;100.00
19831;BME280;10076;52.008;4.708;2023-11-22T10:01:20;103129.84;;;9.74;100.00
19831;BME280;10076;52.008;4.708;2023-11-22T10:03:46;103129.09;;;9.98;100.00
19831;BME280;10076;52.008;4.708;2023-11-22T10:06:12;103125.94;;;9.85;100.00
19831;BME280;10076;52.008;4.708;2023-11-22T10:08:40;103128.41;;;10.19;100.00
19831;BME280;10076;52.008;4.708;2023-11-22T10:11:06;103123.78;;;10.51;100.00
19831;BME280;10076;52.008;4.708;2023-11-22T10:13:32;103116.19;;;10.66;100.00
19831;BME280;10076;52.008;4.708;2023-11-22T10:16:09;103109.47;;;11.05;100.00
19831;BME280;10076;52.008;4.708;2023-11-22T10:18:39;103090.50;;;11.40;100.00
19831;BME280;10076;52.008;4.708;2023-11-22T10:21:18;103093.81;;;11.69;100.00
19831;BME280;10076;52.008;4.708;2023-11-22T10:23:44;103102.09;;;11.81;100.00
19831;BME280;10076;52.008;4.708;2023-11-22T10:26:09;103112.81;;;11.78;100.00
19831;BME280;10076;52.008;4.708;2023-11-22T10:28:34;103107.41;;;12.03;100.00
19831;BME280;10076;52.008;4.708;2023-11-22T10:31:00;103096.31;;;11.93;100.00
19831;BME280;10076;52.008;4.708;2023-11-22T10:33:25;103092.25;;;11.64;100.00
19831;BME280;10076;52.008;4.708;2023-11-22T10:35:51;103093.38;;;11.58;100.00
19831;BME280;10076;52.008;4.708;2023-11-22T10:38:18;103084.91;;;11.47;100.00
19831;BME280;10076;52.008;4.708;2023-11-22T10:40:44;103073.16;;;11.56;100.00
19831;BME280;10076;52.008;4.708;2023-11-22T10:43:19;103076.13;;;11.70;100.00
19831;BME280;10076;52.008;4.708;2023-11-22T10:45:45;103075.31;;;11.89;100.00
19831;BME280;10076;52.008;4.708;2023-11-22T10:48:15;103074.31;;;12.13;100.00
19831;BME280;10076;52.008;4.708;2023-11-22T10:50:45;103079.72;;;12.51;100.00
19831;BME280;10076;52.008;4.708;2023-11-22T10:53:20;103077.06;;;13.11;100.00
19831;BME280;10076;52.008;4.708;2023-11-22T10:55:58;103069.03;;;13.49;100.00
19831;BME280;10076;52.008;4.708;2023-11-22T10:58:25;103065.78;;;13.79;100.00
19831;BME280;10076;52.008;4.708;2023-11-22T11:00:52;103061.34;;;14.15;100.00
19831;BME280;10076;52.008;4.708;2023-11-22T11:03:18;103054.94;;;15.17;100.00
19831;BME280;10076;52.008;4.708;2023-11-22T11:05:50;103055.94;;;15.31;100.00
19831;BME280;10076;52.008;4.708;2023-11-22T11:08:17;103055.88;;;15.16;100.00
19831;BME280;10076;52.008;4.708;2023-11-22T11:10:45;103050.84;;;14.62;100.00
19831;BME280;10076;52.008;4.708;2023-11-22T11:13:11;103062.69;;;14.05;100.00
19831;BME280;10076;52.008;4.708;2023-11-22T11:15:39;103056.34;;;13.37;100.00
19831;BME280;10076;52.008;4.708;2023-11-22T11:18:06;103042.25;;;12.98;100.00
19831;BME280;10076;52.008;4.708;2023-11-22T11:20:43;103037.97;;;12.76;100.00
19831;BME280;10076;52.008;4.708;2023-11-22T11:23:12;103027.88;;;12.84;100.00
19831;BME280;10076;52.008;4.708;2023-11-22T11:25:39;103021.00;;;12.20;100.00
19831;BME280;10076;52.008;4.708;2023-11-22T11:28:05;103017.97;;;11.89;100.00
19831;BME280;10076;52.008;4.708;2023-11-22T11:30:43;103014.81;;;12.01;100.00
19831;BME280;10076;52.008;4.708;2023-11-22T11:33:09;103013.31;;;12.14;100.00
19831;BME280;10076;52.008;4.708;2023-11-22T11:35:41;103007.41;;;12.29;100.00
19831;BME280;10076;52.008;4.708;2023-11-22T11:38:07;103007.97;;;11.74;100.00
19831;BME280;10076;52.008;4.708;2023-11-22T11:40:35;103004.06;;;12.04;100.00
19831;BME280;10076;52.008;4.708;2023-11-22T11:43:01;102999.94;;;12.57;100.00
19831;BME280;10076;52.008;4.708;2023-11-22T11:45:27;103004.34;;;13.14;100.00
19831;BME280;10076;52.008;4.708;2023-11-22T11:47:53;103004.38;;;13.68;100.00
19831;BME280;10076;52.008;4.708;2023-11-22T11:50:20;103005.28;;;13.67;100.00
19831;BME280;10076;52.008;4.708;2023-11-22T11:52:47;103000.16;;;13.81;100.00
19831;BME280;10076;52.008;4.708;2023-11-22T11:55:13;103003.75;;;13.63;100.00
19831;BME280;10076;52.008;4.708;2023-11-22T11:57:38;103006.72;;;13.74;100.00
19831;BME280;10076;52.008;4.708;2023-11-22T12:00:04;103011.16;;;14.26;100.00
19831;BME280;10076;52.008;4.708;2023-11-22T12:02:30;103001.78;;;14.36;100.00
19831;BME280;10076;52.008;4.708;2023-11-22T12:04:56;102992.47;;;13.75;100.00
19831;BME280;10076;52.008;4.708;2023-11-22T12:07:21;102991.75;;;14.07;100.00
19831;BME280;10076;52.008;4.708;2023-11-22T12:09:46;102981.69;;;13.61;100.00
19831;BME280;10076;52.008;4.708;2023-11-22T12:12:12;102976.53;;;13.58;100.00
19831;BME280;10076;52.008;4.708;2023-11-22T12:14:39;102967.81;;;13.73;100.00
19831;BME280;10076;52.008;4.708;2023-11-22T12:17:04;102970.88;;;13.47;100.00
19831;BME280;10076;52.008;4.708;2023-11-22T12:19:31;102970.72;;;12.97;100.00
19831;BME280;10076;52.008;4.708;2023-11-22T12:21:56;102972.25;;;13.02;100.00
19831;BME280;10076;52.008;4.708;2023-11-22T12:24:22;102965.47;;;14.01;100.00
19831;BME280;10076;52.008;4.708;2023-11-22T12:26:49;102944.25;;;14.18;100.00
19831;BME280;10076;52.008;4.708;2023-11-22T12:29:15;102950.69;;;14.14;100.00
19831;BME280;10076;52.008;4.708;2023-11-22T12:31:44;102959.06;;;14.39;100.00
19831;BME280;10076;52.008;4.708;2023-11-22T12:34:14;102957.38;;;14.53;100.00
19831;BME280;10076;52.008;4.708;2023-11-22T12:36:41;102955.31;;;14.43;100.00
19831;BME280;10076;52.008;4.708;2023-11-22T12:39:08;102951.75;;;15.82;100.00
19831;BME280;10076;52.008;4.708;2023-11-22T12:41:35;102948.47;;;16.91;100.00
19831;BME280;10076;52.008;4.708;2023-11-22T12:44:04;102949.94;;;17.63;100.00